»·PEaware :: N1718G KCMA-KSNA

N1718G :: KCMA-KSNA

FLIGHT INFORMATION

Flight Status: Arrived
Operator: Privately registered:
United States
More flights under this callsign
Pilot: Spencer M. (27733)
Aircraft: CESSNA 172 SKYHAWK
(C172)
More flights by this aircraft type
Origin: KCMA Camarillo
United States
Destination: KSNA John Wayne-Orange Co
United States
More flights between these airports :: More routes between these airports
Route: KCMA-KVNY-KSNA
File this flight plan on PilotEdge
Remarks:
Altitude:
(Current/Filed)
5,500ft
Speed:
(Current/Filed)
120kts
Departed: 11-Feb-20 02:11 PM
Arrived: 11-Feb-20 02:52 PM
Distance/Time
Traveled:
69nm/0:41
Distance/Time
To Go:
Arrived

Flight Plot

Page will automatically refresh every two minutes.

Flight plan parsing failed; only flown route is shown


Map Options




Map Legend


Flown Route
Filed Route
Departure Airport
Arrival Airport
Navaid (VOR, NDB)
Fix

Horizontal Profiles

Position Reports

Time Latitude Longitude Heading Altitude Ground
Speed
11-Feb-20 13:59 34.210350 -119.076468 90 79ft 0kts
11-Feb-20 14:00 34.210350 -119.076468 90 79ft 0kts
11-Feb-20 14:01 34.210350 -119.076468 90 79ft 0kts
11-Feb-20 14:02 34.210884 -119.078628 268 78ft 20kts
11-Feb-20 14:03 34.210946 -119.085519 270 73ft 23kts
11-Feb-20 14:04 34.211010 -119.094478 271 65ft 26kts
11-Feb-20 14:05 34.211218 -119.100795 295 60ft 12kts
11-Feb-20 14:06 34.212870 -119.104548 10 60ft 0kts
11-Feb-20 14:07 34.212870 -119.104548 10 60ft 0kts
11-Feb-20 14:08 34.212871 -119.104548 10 60ft 0kts
11-Feb-20 14:09 34.213853 -119.103087 87 60ft 32kts
11-Feb-20 14:10 34.214273 -119.073075 88 649ft 109kts
11-Feb-20 14:11 34.216184 -119.035957 89 1424ft 111kts
11-Feb-20 14:12 34.215904 -118.998451 85 2131ft 112kts
11-Feb-20 14:13 34.215476 -118.960453 87 2775ft 114kts
11-Feb-20 14:14 34.216113 -118.921945 87 3366ft 115kts
11-Feb-20 14:15 34.215097 -118.883558 93 3831ft 108kts
11-Feb-20 14:16 34.212593 -118.848951 95 4525ft 100kts
11-Feb-20 14:17 34.209826 -118.816263 95 5220ft 96kts
11-Feb-20 14:18 34.206839 -118.781467 95 5525ft 119kts
11-Feb-20 14:19 34.204488 -118.739663 91 5529ft 125kts
11-Feb-20 14:20 34.203207 -118.697706 91 5431ft 125kts
11-Feb-20 14:21 34.201909 -118.656399 91 5428ft 122kts
11-Feb-20 14:22 34.201036 -118.615307 91 5428ft 122kts
11-Feb-20 14:23 34.194569 -118.575478 122 5410ft 123kts
11-Feb-20 14:24 34.165211 -118.556783 159 5411ft 121kts
11-Feb-20 14:25 34.134533 -118.539656 151 5412ft 122kts
11-Feb-20 14:26 34.105306 -118.519029 149 5412ft 122kts
11-Feb-20 14:27 34.075205 -118.500125 154 5411ft 122kts
11-Feb-20 14:28 34.043831 -118.484834 159 5411ft 122kts
11-Feb-20 14:29 34.011830 -118.471059 159 5411ft 122kts
11-Feb-20 14:30 33.981113 -118.456414 157 5407ft 116kts
11-Feb-20 14:31 33.951437 -118.441120 157 5406ft 115kts
11-Feb-20 14:32 33.923635 -118.422394 138 5404ft 115kts
11-Feb-20 14:33 33.900355 -118.396253 134 5415ft 115kts
11-Feb-20 14:34 33.876700 -118.370109 138 5415ft 115kts
11-Feb-20 14:35 33.852749 -118.344860 138 5415ft 115kts
11-Feb-20 14:36 33.828582 -118.319447 139 5415ft 115kts
11-Feb-20 14:37 33.804347 -118.294030 139 5415ft 115kts
11-Feb-20 14:38 33.780609 -118.268046 131 5415ft 115kts
11-Feb-20 14:39 33.759862 -118.238430 130 5415ft 115kts
11-Feb-20 14:40 33.739405 -118.208785 126 5415ft 115kts
11-Feb-20 14:41 33.719287 -118.175701 125 5060ft 130kts
11-Feb-20 14:42 33.699584 -118.139742 123 4558ft 126kts
11-Feb-20 14:43 33.682217 -118.102959 117 4056ft 126kts
11-Feb-20 14:44 33.673876 -118.062186 96 3556ft 126kts
11-Feb-20 14:45 33.674599 -118.019880 87 2988ft 131kts
11-Feb-20 14:46 33.676150 -117.976098 89 2089ft 130kts
11-Feb-20 14:47 33.675242 -117.936367 91 1428ft 112kts
11-Feb-20 14:48 33.674969 -117.902955 89 1036ft 89kts
11-Feb-20 14:49 33.686204 -117.882056 28 864ft 77kts
11-Feb-20 14:50 33.692341 -117.864483 123 563ft 65kts
11-Feb-20 14:51 33.678460 -117.867034 196 60ft 24kts
11-Feb-20 14:52 33.678095 -117.868455 278 60ft 4kts
11-Feb-20 14:53 33.676186 -117.870848 221 60ft 7kts
11-Feb-20 14:54 33.676155 -117.870877 216 60ft 0kts

Navigation Log

Ident Type
Flight plan parsing failed, navigation log unavailable